sensor_id;sensor_type;location;lat;lon;timestamp;P1;durP1;ratioP1;P2;durP2;ratioP2
2934;SDS011;2462;51.456;7.248;2023-06-04T00:01:38;4.40;;;1.50;;
2934;SDS011;2462;51.456;7.248;2023-06-04T00:04:04;1.57;;;1.47;;
2934;SDS011;2462;51.456;7.248;2023-06-04T00:06:30;1.37;;;1.23;;
2934;SDS011;2462;51.456;7.248;2023-06-04T00:08:56;2.30;;;1.10;;
2934;SDS011;2462;51.456;7.248;2023-06-04T00:11:21;2.77;;;1.33;;
2934;SDS011;2462;51.456;7.248;2023-06-04T00:13:47;1.40;;;1.20;;
2934;SDS011;2462;51.456;7.248;2023-06-04T00:16:13;1.57;;;1.33;;
2934;SDS011;2462;51.456;7.248;2023-06-04T00:18:39;1.83;;;1.20;;
2934;SDS011;2462;51.456;7.248;2023-06-04T00:21:05;2.53;;;1.70;;
2934;SDS011;2462;51.456;7.248;2023-06-04T00:23:31;2.80;;;1.40;;
2934;SDS011;2462;51.456;7.248;2023-06-04T00:25:57;1.27;;;1.17;;
2934;SDS011;2462;51.456;7.248;2023-06-04T00:28:23;2.50;;;1.50;;
2934;SDS011;2462;51.456;7.248;2023-06-04T00:30:50;1.67;;;1.43;;
2934;SDS011;2462;51.456;7.248;2023-06-04T00:33:16;1.77;;;1.60;;
2934;SDS011;2462;51.456;7.248;2023-06-04T00:35:42;1.47;;;1.13;;
2934;SDS011;2462;51.456;7.248;2023-06-04T00:38:08;1.40;;;1.20;;
2934;SDS011;2462;51.456;7.248;2023-06-04T00:40:34;1.53;;;1.20;;
2934;SDS011;2462;51.456;7.248;2023-06-04T00:43:00;1.70;;;1.33;;
2934;SDS011;2462;51.456;7.248;2023-06-04T00:45:27;1.83;;;1.27;;
2934;SDS011;2462;51.456;7.248;2023-06-04T00:47:56;2.37;;;1.30;;
2934;SDS011;2462;51.456;7.248;2023-06-04T00:50:22;1.57;;;1.10;;
2934;SDS011;2462;51.456;7.248;2023-06-04T00:52:49;1.20;;;1.00;;
2934;SDS011;2462;51.456;7.248;2023-06-04T00:55:15;1.77;;;1.33;;
2934;SDS011;2462;51.456;7.248;2023-06-04T00:57:43;2.40;;;1.50;;
2934;SDS011;2462;51.456;7.248;2023-06-04T01:00:09;1.93;;;1.40;;
2934;SDS011;2462;51.456;7.248;2023-06-04T01:02:37;2.20;;;1.27;;
2934;SDS011;2462;51.456;7.248;2023-06-04T01:05:08;2.13;;;1.47;;
2934;SDS011;2462;51.456;7.248;2023-06-04T01:07:36;1.37;;;1.23;;
2934;SDS011;2462;51.456;7.248;2023-06-04T01:10:03;1.60;;;1.50;;
2934;SDS011;2462;51.456;7.248;2023-06-04T01:12:29;2.33;;;1.20;;
2934;SDS011;2462;51.456;7.248;2023-06-04T01:14:55;2.10;;;1.50;;
2934;SDS011;2462;51.456;7.248;2023-06-04T01:19:57;2.13;;;1.50;;
2934;SDS011;2462;51.456;7.248;2023-06-04T01:22:30;1.70;;;1.60;;
2934;SDS011;2462;51.456;7.248;2023-06-04T01:24:59;1.70;;;1.20;;
2934;SDS011;2462;51.456;7.248;2023-06-04T01:27:27;1.80;;;1.27;;
2934;SDS011;2462;51.456;7.248;2023-06-04T01:29:53;1.80;;;1.47;;
2934;SDS011;2462;51.456;7.248;2023-06-04T01:32:21;2.27;;;1.67;;
2934;SDS011;2462;51.456;7.248;2023-06-04T01:34:47;2.00;;;1.80;;
2934;SDS011;2462;51.456;7.248;2023-06-04T01:37:13;1.50;;;1.37;;
2934;SDS011;2462;51.456;7.248;2023-06-04T01:39:41;1.63;;;1.40;;
2934;SDS011;2462;51.456;7.248;2023-06-04T01:42:07;1.50;;;1.40;;
2934;SDS011;2462;51.456;7.248;2023-06-04T01:44:33;2.20;;;1.80;;
2934;SDS011;2462;51.456;7.248;2023-06-04T01:46:59;2.37;;;1.20;;
2934;SDS011;2462;51.456;7.248;2023-06-04T01:49:25;2.57;;;1.60;;
2934;SDS011;2462;51.456;7.248;2023-06-04T01:51:52;1.30;;;1.10;;
2934;SDS011;2462;51.456;7.248;2023-06-04T01:54:18;2.00;;;1.17;;
2934;SDS011;2462;51.456;7.248;2023-06-04T01:56:44;1.30;;;1.17;;
2934;SDS011;2462;51.456;7.248;2023-06-04T01:59:11;1.77;;;1.40;;
2934;SDS011;2462;51.456;7.248;2023-06-04T02:01:37;1.50;;;1.30;;
2934;SDS011;2462;51.456;7.248;2023-06-04T02:04:03;2.67;;;1.13;;
2934;SDS011;2462;51.456;7.248;2023-06-04T02:06:29;1.30;;;1.20;;
2934;SDS011;2462;51.456;7.248;2023-06-04T02:08:56;5.83;;;1.60;;
2934;SDS011;2462;51.456;7.248;2023-06-04T02:11:22;1.20;;;1.00;;
2934;SDS011;2462;51.456;7.248;2023-06-04T02:13:48;1.90;;;1.30;;
2934;SDS011;2462;51.456;7.248;2023-06-04T02:16:14;1.80;;;1.40;;
2934;SDS011;2462;51.456;7.248;2023-06-04T02:18:40;1.60;;;1.27;;
2934;SDS011;2462;51.456;7.248;2023-06-04T02:21:06;1.50;;;1.27;;
2934;SDS011;2462;51.456;7.248;2023-06-04T02:23:32;2.13;;;1.80;;
2934;SDS011;2462;51.456;7.248;2023-06-04T02:25:58;1.60;;;1.30;;
2934;SDS011;2462;51.456;7.248;2023-06-04T02:28:24;1.63;;;1.30;;
2934;SDS011;2462;51.456;7.248;2023-06-04T02:30:50;1.93;;;1.37;;
2934;SDS011;2462;51.456;7.248;2023-06-04T02:33:16;2.37;;;1.40;;
2934;SDS011;2462;51.456;7.248;2023-06-04T02:35:42;1.60;;;1.50;;
2934;SDS011;2462;51.456;7.248;2023-06-04T02:38:08;1.60;;;1.47;;
2934;SDS011;2462;51.456;7.248;2023-06-04T02:40:34;1.40;;;1.10;;
2934;SDS011;2462;51.456;7.248;2023-06-04T02:43:00;1.70;;;1.43;;
2934;SDS011;2462;51.456;7.248;2023-06-04T02:45:26;1.30;;;1.20;;
2934;SDS011;2462;51.456;7.248;2023-06-04T02:47:53;1.90;;;1.53;;
2934;SDS011;2462;51.456;7.248;2023-06-04T02:50:19;1.50;;;1.27;;
2934;SDS011;2462;51.456;7.248;2023-06-04T02:52:45;1.43;;;1.33;;
2934;SDS011;2462;51.456;7.248;2023-06-04T02:55:11;1.50;;;1.20;;
2934;SDS011;2462;51.456;7.248;2023-06-04T02:57:39;1.70;;;1.23;;
2934;SDS011;2462;51.456;7.248;2023-06-04T03:00:06;1.93;;;1.57;;
2934;SDS011;2462;51.456;7.248;2023-06-04T03:02:38;3.43;;;1.50;;
2934;SDS011;2462;51.456;7.248;2023-06-04T03:05:04;1.60;;;1.20;;
2934;SDS011;2462;51.456;7.248;2023-06-04T03:07:30;1.57;;;1.47;;
2934;SDS011;2462;51.456;7.248;2023-06-04T03:09:57;1.57;;;1.43;;
2934;SDS011;2462;51.456;7.248;2023-06-04T03:12:23;2.03;;;1.40;;
2934;SDS011;2462;51.456;7.248;2023-06-04T03:14:49;1.33;;;1.23;;
2934;SDS011;2462;51.456;7.248;2023-06-04T03:17:15;1.50;;;1.40;;
2934;SDS011;2462;51.456;7.248;2023-06-04T03:19:41;1.97;;;1.50;;
2934;SDS011;2462;51.456;7.248;2023-06-04T03:22:07;1.47;;;1.33;;
2934;SDS011;2462;51.456;7.248;2023-06-04T03:24:34;1.87;;;1.30;;
2934;SDS011;2462;51.456;7.248;2023-06-04T03:27:01;3.10;;;1.33;;
2934;SDS011;2462;51.456;7.248;2023-06-04T03:29:27;1.33;;;1.17;;
2934;SDS011;2462;51.456;7.248;2023-06-04T03:31:53;1.47;;;1.37;;
2934;SDS011;2462;51.456;7.248;2023-06-04T03:34:19;1.53;;;1.40;;
2934;SDS011;2462;51.456;7.248;2023-06-04T03:36:45;2.37;;;1.77;;
2934;SDS011;2462;51.456;7.248;2023-06-04T03:39:11;1.60;;;1.27;;
2934;SDS011;2462;51.456;7.248;2023-06-04T03:41:37;1.33;;;1.23;;
2934;SDS011;2462;51.456;7.248;2023-06-04T03:44:03;1.57;;;1.47;;
2934;SDS011;2462;51.456;7.248;2023-06-04T03:46:29;1.43;;;1.00;;
2934;SDS011;2462;51.456;7.248;2023-06-04T03:48:58;1.40;;;1.13;;
2934;SDS011;2462;51.456;7.248;2023-06-04T03:51:24;2.20;;;1.43;;
2934;SDS011;2462;51.456;7.248;2023-06-04T03:53:50;1.10;;;1.00;;
2934;SDS011;2462;51.456;7.248;2023-06-04T03:56:16;1.37;;;1.27;;
2934;SDS011;2462;51.456;7.248;2023-06-04T03:58:42;1.73;;;1.50;;
2934;SDS011;2462;51.456;7.248;2023-06-04T04:01:08;1.77;;;1.53;;
2934;SDS011;2462;51.456;7.248;2023-06-04T04:03:35;1.87;;;1.60;;
2934;SDS011;2462;51.456;7.248;2023-06-04T04:06:01;1.70;;;1.43;;
2934;SDS011;2462;51.456;7.248;2023-06-04T04:08:27;2.13;;;1.60;;
2934;SDS011;2462;51.456;7.248;2023-06-04T04:10:56;1.70;;;1.40;;
2934;SDS011;2462;51.456;7.248;2023-06-04T04:13:23;2.23;;;1.47;;
2934;SDS011;2462;51.456;7.248;2023-06-04T04:15:49;4.70;;;1.90;;
2934;SDS011;2462;51.456;7.248;2023-06-04T04:18:20;1.50;;;1.10;;
2934;SDS011;2462;51.456;7.248;2023-06-04T04:20:46;1.40;;;1.30;;
2934;SDS011;2462;51.456;7.248;2023-06-04T04:23:12;1.93;;;1.60;;
2934;SDS011;2462;51.456;7.248;2023-06-04T04:25:39;1.53;;;1.30;;
2934;SDS011;2462;51.456;7.248;2023-06-04T04:28:05;2.60;;;1.13;;
2934;SDS011;2462;51.456;7.248;2023-06-04T04:30:34;1.93;;;1.63;;
2934;SDS011;2462;51.456;7.248;2023-06-04T04:33:00;1.93;;;1.30;;
2934;SDS011;2462;51.456;7.248;2023-06-04T04:35:26;2.17;;;1.30;;
2934;SDS011;2462;51.456;7.248;2023-06-04T04:37:53;1.10;;;1.00;;
2934;SDS011;2462;51.456;7.248;2023-06-04T04:40:19;1.60;;;1.40;;
2934;SDS011;2462;51.456;7.248;2023-06-04T04:42:45;1.40;;;1.17;;
2934;SDS011;2462;51.456;7.248;2023-06-04T04:45:11;1.93;;;1.63;;
2934;SDS011;2462;51.456;7.248;2023-06-04T04:47:38;1.40;;;1.20;;
2934;SDS011;2462;51.456;7.248;2023-06-04T04:50:04;1.70;;;1.10;;
2934;SDS011;2462;51.456;7.248;2023-06-04T04:52:30;1.57;;;1.13;;
2934;SDS011;2462;51.456;7.248;2023-06-04T04:54:56;1.40;;;1.23;;
2934;SDS011;2462;51.456;7.248;2023-06-04T04:57:23;2.33;;;1.50;;
2934;SDS011;2462;51.456;7.248;2023-06-04T04:59:49;1.10;;;0.97;;
2934;SDS011;2462;51.456;7.248;2023-06-04T05:02:15;1.20;;;1.07;;
2934;SDS011;2462;51.456;7.248;2023-06-04T05:04:42;1.63;;;1.40;;
2934;SDS011;2462;51.456;7.248;2023-06-04T05:07:08;1.80;;;1.20;;
2934;SDS011;2462;51.456;7.248;2023-06-04T05:09:33;1.20;;;0.90;;
2934;SDS011;2462;51.456;7.248;2023-06-04T05:11:59;1.93;;;1.73;;
2934;SDS011;2462;51.456;7.248;2023-06-04T05:14:26;1.73;;;1.20;;
2934;SDS011;2462;51.456;7.248;2023-06-04T05:16:53;1.30;;;1.03;;
2934;SDS011;2462;51.456;7.248;2023-06-04T05:19:21;1.63;;;1.23;;
2934;SDS011;2462;51.456;7.248;2023-06-04T05:21:48;2.30;;;1.40;;
2934;SDS011;2462;51.456;7.248;2023-06-04T05:24:14;1.20;;;1.07;;
2934;SDS011;2462;51.456;7.248;2023-06-04T05:26:41;1.50;;;1.20;;
2934;SDS011;2462;51.456;7.248;2023-06-04T05:29:07;1.83;;;1.47;;
2934;SDS011;2462;51.456;7.248;2023-06-04T05:31:33;3.10;;;1.30;;
2934;SDS011;2462;51.456;7.248;2023-06-04T05:34:00;1.37;;;1.20;;
2934;SDS011;2462;51.456;7.248;2023-06-04T05:36:26;1.57;;;1.13;;
2934;SDS011;2462;51.456;7.248;2023-06-04T05:38:53;1.73;;;1.30;;
2934;SDS011;2462;51.456;7.248;2023-06-04T05:41:30;1.83;;;1.20;;
2934;SDS011;2462;51.456;7.248;2023-06-04T05:43:56;2.50;;;1.50;;
2934;SDS011;2462;51.456;7.248;2023-06-04T05:46:22;1.60;;;1.20;;
2934;SDS011;2462;51.456;7.248;2023-06-04T05:48:48;1.50;;;1.23;;
2934;SDS011;2462;51.456;7.248;2023-06-04T05:51:16;1.37;;;1.27;;
2934;SDS011;2462;51.456;7.248;2023-06-04T05:53:42;1.57;;;1.47;;
2934;SDS011;2462;51.456;7.248;2023-06-04T05:56:07;1.10;;;0.90;;
2934;SDS011;2462;51.456;7.248;2023-06-04T05:58:34;1.40;;;1.10;;
2934;SDS011;2462;51.456;7.248;2023-06-04T06:00:59;1.63;;;1.13;;
2934;SDS011;2462;51.456;7.248;2023-06-04T06:03:26;1.60;;;1.27;;
2934;SDS011;2462;51.456;7.248;2023-06-04T06:05:52;1.83;;;1.63;;
2934;SDS011;2462;51.456;7.248;2023-06-04T06:08:19;2.50;;;1.50;;
2934;SDS011;2462;51.456;7.248;2023-06-04T06:10:46;1.97;;;1.00;;
2934;SDS011;2462;51.456;7.248;2023-06-04T06:13:12;1.33;;;1.23;;
2934;SDS011;2462;51.456;7.248;2023-06-04T06:15:38;1.40;;;1.30;;
2934;SDS011;2462;51.456;7.248;2023-06-04T06:18:04;1.53;;;1.00;;
2934;SDS011;2462;51.456;7.248;2023-06-04T06:20:30;2.03;;;1.03;;
2934;SDS011;2462;51.456;7.248;2023-06-04T06:22:57;1.50;;;1.00;;
2934;SDS011;2462;51.456;7.248;2023-06-04T06:25:23;2.50;;;1.23;;
2934;SDS011;2462;51.456;7.248;2023-06-04T06:27:49;1.93;;;1.37;;
2934;SDS011;2462;51.456;7.248;2023-06-04T06:30:15;1.50;;;1.00;;
2934;SDS011;2462;51.456;7.248;2023-06-04T06:32:41;2.73;;;1.10;;
2934;SDS011;2462;51.456;7.248;2023-06-04T06:35:07;1.33;;;1.10;;
2934;SDS011;2462;51.456;7.248;2023-06-04T06:37:33;2.13;;;1.50;;
2934;SDS011;2462;51.456;7.248;2023-06-04T06:39:59;1.60;;;1.30;;
2934;SDS011;2462;51.456;7.248;2023-06-04T06:42:25;1.93;;;1.13;;
2934;SDS011;2462;51.456;7.248;2023-06-04T06:44:51;1.63;;;1.10;;
2934;SDS011;2462;51.456;7.248;2023-06-04T06:47:17;1.33;;;1.00;;
2934;SDS011;2462;51.456;7.248;2023-06-04T06:49:43;1.50;;;1.23;;
2934;SDS011;2462;51.456;7.248;2023-06-04T06:52:09;1.40;;;1.10;;
2934;SDS011;2462;51.456;7.248;2023-06-04T06:54:35;1.50;;;0.97;;
2934;SDS011;2462;51.456;7.248;2023-06-04T06:57:01;1.30;;;1.17;;
2934;SDS011;2462;51.456;7.248;2023-06-04T06:59:33;3.95;;;2.40;;
2934;SDS011;2462;51.456;7.248;2023-06-04T07:01:59;2.60;;;1.83;;
2934;SDS011;2462;51.456;7.248;2023-06-04T07:04:25;3.70;;;2.80;;
2934;SDS011;2462;51.456;7.248;2023-06-04T07:06:51;5.30;;;2.90;;
2934;SDS011;2462;51.456;7.248;2023-06-04T07:09:16;4.40;;;2.57;;
2934;SDS011;2462;51.456;7.248;2023-06-04T07:11:42;2.40;;;1.93;;
2934;SDS011;2462;51.456;7.248;2023-06-04T07:14:07;3.53;;;2.53;;
2934;SDS011;2462;51.456;7.248;2023-06-04T07:16:33;4.17;;;2.30;;
2934;SDS011;2462;51.456;7.248;2023-06-04T07:19:00;2.67;;;2.47;;
2934;SDS011;2462;51.456;7.248;2023-06-04T07:21:26;2.63;;;2.10;;
2934;SDS011;2462;51.456;7.248;2023-06-04T07:23:52;2.40;;;2.10;;
2934;SDS011;2462;51.456;7.248;2023-06-04T07:26:17;2.53;;;2.17;;
2934;SDS011;2462;51.456;7.248;2023-06-04T07:28:43;2.90;;;2.40;;
2934;SDS011;2462;51.456;7.248;2023-06-04T07:31:09;2.97;;;2.37;;
2934;SDS011;2462;51.456;7.248;2023-06-04T07:33:35;4.50;;;2.30;;
2934;SDS011;2462;51.456;7.248;2023-06-04T07:36:08;4.50;;;2.70;;
2934;SDS011;2462;51.456;7.248;2023-06-04T07:38:39;2.40;;;2.20;;
2934;SDS011;2462;51.456;7.248;2023-06-04T07:41:05;2.70;;;1.93;;
2934;SDS011;2462;51.456;7.248;2023-06-04T07:43:32;7.37;;;2.23;;
2934;SDS011;2462;51.456;7.248;2023-06-04T07:45:59;2.30;;;2.10;;
2934;SDS011;2462;51.456;7.248;2023-06-04T07:48:25;2.40;;;2.13;;
2934;SDS011;2462;51.456;7.248;2023-06-04T07:50:55;3.50;;;2.10;;
2934;SDS011;2462;51.456;7.248;2023-06-04T07:53:22;3.20;;;2.60;;
2934;SDS011;2462;51.456;7.248;2023-06-04T07:55:47;2.50;;;1.80;;
2934;SDS011;2462;51.456;7.248;2023-06-04T07:58:13;7.07;;;2.83;;
2934;SDS011;2462;51.456;7.248;2023-06-04T08:00:38;8.90;;;2.47;;
2934;SDS011;2462;51.456;7.248;2023-06-04T08:03:04;6.63;;;2.40;;
2934;SDS011;2462;51.456;7.248;2023-06-04T08:05:29;3.53;;;1.90;;
2934;SDS011;2462;51.456;7.248;2023-06-04T08:07:56;2.93;;;1.83;;
2934;SDS011;2462;51.456;7.248;2023-06-04T08:10:21;2.50;;;2.03;;
2934;SDS011;2462;51.456;7.248;2023-06-04T08:12:47;4.17;;;2.57;;
2934;SDS011;2462;51.456;7.248;2023-06-04T08:15:12;6.40;;;2.67;;
2934;SDS011;2462;51.456;7.248;2023-06-04T08:17:38;3.03;;;2.30;;
2934;SDS011;2462;51.456;7.248;2023-06-04T08:20:03;2.33;;;1.90;;
2934;SDS011;2462;51.456;7.248;2023-06-04T08:22:34;3.20;;;2.27;;
2934;SDS011;2462;51.456;7.248;2023-06-04T08:24:59;2.60;;;2.40;;
2934;SDS011;2462;51.456;7.248;2023-06-04T08:27:25;3.27;;;2.47;;
2934;SDS011;2462;51.456;7.248;2023-06-04T08:29:50;5.47;;;2.70;;
2934;SDS011;2462;51.456;7.248;2023-06-04T08:32:17;5.47;;;3.33;;
2934;SDS011;2462;51.456;7.248;2023-06-04T08:34:43;4.72;;;2.25;;
2934;SDS011;2462;51.456;7.248;2023-06-04T08:37:08;6.30;;;2.50;;
2934;SDS011;2462;51.456;7.248;2023-06-04T08:39:34;3.47;;;2.90;;
2934;SDS011;2462;51.456;7.248;2023-06-04T08:42:00;3.60;;;2.50;;
2934;SDS011;2462;51.456;7.248;2023-06-04T08:44:29;7.73;;;3.10;;
2934;SDS011;2462;51.456;7.248;2023-06-04T08:46:56;7.00;;;2.77;;
2934;SDS011;2462;51.456;7.248;2023-06-04T08:49:27;5.30;;;3.37;;
2934;SDS011;2462;51.456;7.248;2023-06-04T08:52:02;3.23;;;2.93;;
2934;SDS011;2462;51.456;7.248;2023-06-04T08:54:28;3.50;;;3.20;;
2934;SDS011;2462;51.456;7.248;2023-06-04T08:56:55;3.30;;;3.00;;
2934;SDS011;2462;51.456;7.248;2023-06-04T08:59:22;6.00;;;3.40;;
2934;SDS011;2462;51.456;7.248;2023-06-04T09:01:50;3.17;;;2.90;;
2934;SDS011;2462;51.456;7.248;2023-06-04T09:04:18;6.00;;;3.60;;
2934;SDS011;2462;51.456;7.248;2023-06-04T09:06:43;6.47;;;3.47;;
2934;SDS011;2462;51.456;7.248;2023-06-04T09:09:10;4.67;;;3.20;;
2934;SDS011;2462;51.456;7.248;2023-06-04T09:11:49;7.00;;;3.17;;
2934;SDS011;2462;51.456;7.248;2023-06-04T09:14:18;2.80;;;2.60;;
2934;SDS011;2462;51.456;7.248;2023-06-04T09:16:51;6.73;;;3.50;;
2934;SDS011;2462;51.456;7.248;2023-06-04T09:19:18;3.60;;;3.00;;
2934;SDS011;2462;51.456;7.248;2023-06-04T09:24:11;4.10;;;3.37;;
2934;SDS011;2462;51.456;7.248;2023-06-04T09:26:37;2.87;;;2.63;;
2934;SDS011;2462;51.456;7.248;2023-06-04T09:29:02;5.60;;;3.20;;
2934;SDS011;2462;51.456;7.248;2023-06-04T09:31:31;5.10;;;3.30;;
2934;SDS011;2462;51.456;7.248;2023-06-04T09:34:02;6.10;;;3.70;;
2934;SDS011;2462;51.456;7.248;2023-06-04T09:36:31;3.50;;;2.73;;
2934;SDS011;2462;51.456;7.248;2023-06-04T09:39:03;6.23;;;3.60;;
2934;SDS011;2462;51.456;7.248;2023-06-04T09:41:30;8.93;;;3.10;;
2934;SDS011;2462;51.456;7.248;2023-06-04T09:43:59;4.47;;;3.23;;
2934;SDS011;2462;51.456;7.248;2023-06-04T09:46:28;4.83;;;3.23;;
2934;SDS011;2462;51.456;7.248;2023-06-04T09:49:01;5.43;;;3.57;;
2934;SDS011;2462;51.456;7.248;2023-06-04T09:51:28;4.20;;;3.40;;
2934;SDS011;2462;51.456;7.248;2023-06-04T09:53:59;6.10;;;2.77;;
2934;SDS011;2462;51.456;7.248;2023-06-04T09:56:25;4.47;;;2.80;;
2934;SDS011;2462;51.456;7.248;2023-06-04T09:58:57;6.47;;;3.10;;
2934;SDS011;2462;51.456;7.248;2023-06-04T10:01:25;3.40;;;3.10;;
2934;SDS011;2462;51.456;7.248;2023-06-04T10:03:51;4.87;;;2.83;;
2934;SDS011;2462;51.456;7.248;2023-06-04T10:06:19;6.27;;;2.07;;
2934;SDS011;2462;51.456;7.248;2023-06-04T10:08:48;4.03;;;2.17;;
2934;SDS011;2462;51.456;7.248;2023-06-04T10:11:16;4.07;;;2.53;;
2934;SDS011;2462;51.456;7.248;2023-06-04T10:13:57;3.73;;;2.30;;
2934;SDS011;2462;51.456;7.248;2023-06-04T10:16:27;5.53;;;2.50;;
2934;SDS011;2462;51.456;7.248;2023-06-04T10:18:55;3.10;;;2.57;;
2934;SDS011;2462;51.456;7.248;2023-06-04T10:21:21;3.50;;;2.33;;
2934;SDS011;2462;51.456;7.248;2023-06-04T10:23:48;3.17;;;2.57;;
2934;SDS011;2462;51.456;7.248;2023-06-04T10:26:15;3.47;;;2.10;;
2934;SDS011;2462;51.456;7.248;2023-06-04T10:28:41;3.60;;;2.50;;
2934;SDS011;2462;51.456;7.248;2023-06-04T10:31:08;3.03;;;2.73;;
2934;SDS011;2462;51.456;7.248;2023-06-04T10:33:35;2.80;;;2.50;;
2934;SDS011;2462;51.456;7.248;2023-06-04T10:36:10;4.37;;;2.60;;
2934;SDS011;2462;51.456;7.248;2023-06-04T10:38:48;4.93;;;2.10;;
2934;SDS011;2462;51.456;7.248;2023-06-04T10:41:16;2.60;;;2.40;;
2934;SDS011;2462;51.456;7.248;2023-06-04T10:43:45;3.73;;;2.87;;
2934;SDS011;2462;51.456;7.248;2023-06-04T10:46:14;3.63;;;2.20;;
2934;SDS011;2462;51.456;7.248;2023-06-04T10:48:59;2.50;;;2.30;;
2934;SDS011;2462;51.456;7.248;2023-06-04T10:51:29;2.10;;;1.90;;
2934;SDS011;2462;51.456;7.248;2023-06-04T10:53:57;4.03;;;2.37;;
2934;SDS011;2462;51.456;7.248;2023-06-04T10:58:57;2.87;;;2.57;;
2934;SDS011;2462;51.456;7.248;2023-06-04T11:01:23;4.10;;;1.93;;
2934;SDS011;2462;51.456;7.248;2023-06-04T11:03:50;2.50;;;2.30;;
2934;SDS011;2462;51.456;7.248;2023-06-04T11:06:16;3.40;;;2.00;;
2934;SDS011;2462;51.456;7.248;2023-06-04T11:08:42;3.73;;;2.00;;
2934;SDS011;2462;51.456;7.248;2023-06-04T11:11:11;2.33;;;2.03;;
2934;SDS011;2462;51.456;7.248;2023-06-04T11:13:38;3.20;;;2.10;;
2934;SDS011;2462;51.456;7.248;2023-06-04T11:16:13;3.60;;;1.87;;
2934;SDS011;2462;51.456;7.248;2023-06-04T11:18:44;2.30;;;1.93;;
2934;SDS011;2462;51.456;7.248;2023-06-04T11:21:19;3.03;;;2.30;;
2934;SDS011;2462;51.456;7.248;2023-06-04T11:23:45;5.80;;;2.30;;
2934;SDS011;2462;51.456;7.248;2023-06-04T11:26:10;5.00;;;1.87;;
2934;SDS011;2462;51.456;7.248;2023-06-04T11:28:36;4.70;;;2.27;;
2934;SDS011;2462;51.456;7.248;2023-06-04T11:31:02;3.60;;;2.30;;
2934;SDS011;2462;51.456;7.248;2023-06-04T11:33:28;3.23;;;2.50;;
2934;SDS011;2462;51.456;7.248;2023-06-04T11:35:54;2.20;;;2.00;;
2934;SDS011;2462;51.456;7.248;2023-06-04T11:38:20;6.77;;;2.67;;
2934;SDS011;2462;51.456;7.248;2023-06-04T11:40:59;6.10;;;2.07;;
2934;SDS011;2462;51.456;7.248;2023-06-04T11:43:26;2.37;;;2.17;;
2934;SDS011;2462;51.456;7.248;2023-06-04T11:45:53;3.93;;;1.93;;
2934;SDS011;2462;51.456;7.248;2023-06-04T11:48:19;2.70;;;2.10;;
2934;SDS011;2462;51.456;7.248;2023-06-04T11:50:45;2.43;;;2.10;;
2934;SDS011;2462;51.456;7.248;2023-06-04T11:53:11;2.83;;;1.90;;
2934;SDS011;2462;51.456;7.248;2023-06-04T11:55:37;2.47;;;1.70;;
2934;SDS011;2462;51.456;7.248;2023-06-04T11:58:04;4.70;;;2.43;;
2934;SDS011;2462;51.456;7.248;2023-06-04T12:00:29;4.60;;;2.10;;
2934;SDS011;2462;51.456;7.248;2023-06-04T12:02:55;4.57;;;2.10;;
2934;SDS011;2462;51.456;7.248;2023-06-04T12:05:22;2.50;;;2.00;;
2934;SDS011;2462;51.456;7.248;2023-06-04T12:08:03;2.17;;;1.97;;
2934;SDS011;2462;51.456;7.248;2023-06-04T12:10:38;3.90;;;2.57;;
2934;SDS011;2462;51.456;7.248;2023-06-04T12:13:04;3.83;;;1.80;;
2934;SDS011;2462;51.456;7.248;2023-06-04T12:15:30;1.70;;;1.47;;
2934;SDS011;2462;51.456;7.248;2023-06-04T12:17:55;3.63;;;1.93;;
2934;SDS011;2462;51.456;7.248;2023-06-04T12:20:32;4.60;;;1.70;;
2934;SDS011;2462;51.456;7.248;2023-06-04T12:23:02;2.30;;;1.87;;
2934;SDS011;2462;51.456;7.248;2023-06-04T12:25:29;3.73;;;2.47;;
2934;SDS011;2462;51.456;7.248;2023-06-04T12:27:55;2.73;;;2.00;;
2934;SDS011;2462;51.456;7.248;2023-06-04T12:30:21;4.93;;;2.20;;
2934;SDS011;2462;51.456;7.248;2023-06-04T12:32:47;4.22;;;1.83;;
2934;SDS011;2462;51.456;7.248;2023-06-04T12:35:13;2.30;;;1.80;;
2934;SDS011;2462;51.456;7.248;2023-06-04T12:37:41;2.17;;;1.50;;
2934;SDS011;2462;51.456;7.248;2023-06-04T12:40:07;2.20;;;2.00;;
2934;SDS011;2462;51.456;7.248;2023-06-04T12:42:34;2.00;;;1.80;;
2934;SDS011;2462;51.456;7.248;2023-06-04T12:44:59;4.30;;;1.70;;
2934;SDS011;2462;51.456;7.248;2023-06-04T12:47:25;2.33;;;1.63;;
2934;SDS011;2462;51.456;7.248;2023-06-04T12:49:50;8.20;;;1.80;;
2934;SDS011;2462;51.456;7.248;2023-06-04T12:52:17;2.20;;;2.00;;
2934;SDS011;2462;51.456;7.248;2023-06-04T12:54:43;3.60;;;2.17;;
2934;SDS011;2462;51.456;7.248;2023-06-04T12:57:09;3.43;;;1.77;;
2934;SDS011;2462;51.456;7.248;2023-06-04T12:59:35;2.90;;;1.93;;
2934;SDS011;2462;51.456;7.248;2023-06-04T13:02:00;4.23;;;1.83;;
2934;SDS011;2462;51.456;7.248;2023-06-04T13:04:26;2.57;;;1.70;;
2934;SDS011;2462;51.456;7.248;2023-06-04T13:06:51;6.40;;;1.83;;
2934;SDS011;2462;51.456;7.248;2023-06-04T13:09:20;3.10;;;1.93;;
2934;SDS011;2462;51.456;7.248;2023-06-04T13:11:47;2.40;;;2.20;;
2934;SDS011;2462;51.456;7.248;2023-06-04T13:14:13;4.23;;;2.00;;
2934;SDS011;2462;51.456;7.248;2023-06-04T13:16:39;3.57;;;2.20;;
2934;SDS011;2462;51.456;7.248;2023-06-04T13:19:05;4.97;;;1.63;;
2934;SDS011;2462;51.456;7.248;2023-06-04T13:21:31;8.73;;;2.33;;
2934;SDS011;2462;51.456;7.248;2023-06-04T13:23:57;3.93;;;1.40;;
2934;SDS011;2462;51.456;7.248;2023-06-04T13:26:22;3.87;;;2.13;;
2934;SDS011;2462;51.456;7.248;2023-06-04T13:28:48;2.50;;;1.67;;
2934;SDS011;2462;51.456;7.248;2023-06-04T13:31:13;2.80;;;1.53;;
2934;SDS011;2462;51.456;7.248;2023-06-04T13:33:40;3.43;;;2.07;;
2934;SDS011;2462;51.456;7.248;2023-06-04T13:36:06;2.53;;;1.83;;
2934;SDS011;2462;51.456;7.248;2023-06-04T13:38:32;4.50;;;3.03;;
2934;SDS011;2462;51.456;7.248;2023-06-04T13:40:57;1.90;;;1.70;;
2934;SDS011;2462;51.456;7.248;2023-06-04T13:43:23;2.97;;;1.73;;
2934;SDS011;2462;51.456;7.248;2023-06-04T13:45:49;3.83;;;1.53;;
2934;SDS011;2462;51.456;7.248;2023-06-04T13:48:15;1.90;;;1.47;;
2934;SDS011;2462;51.456;7.248;2023-06-04T13:50:40;3.27;;;1.87;;
2934;SDS011;2462;51.456;7.248;2023-06-04T13:53:09;2.97;;;1.87;;
2934;SDS011;2462;51.456;7.248;2023-06-04T13:55:37;3.53;;;1.90;;
2934;SDS011;2462;51.456;7.248;2023-06-04T13:58:02;4.13;;;2.00;;
2934;SDS011;2462;51.456;7.248;2023-06-04T14:00:28;2.30;;;1.87;;
2934;SDS011;2462;51.456;7.248;2023-06-04T14:02:55;3.60;;;1.50;;
2934;SDS011;2462;51.456;7.248;2023-06-04T14:05:21;2.13;;;1.67;;
2934;SDS011;2462;51.456;7.248;2023-06-04T14:07:47;2.70;;;2.03;;
2934;SDS011;2462;51.456;7.248;2023-06-04T14:10:12;2.10;;;1.53;;
2934;SDS011;2462;51.456;7.248;2023-06-04T14:12:38;3.47;;;1.80;;
2934;SDS011;2462;51.456;7.248;2023-06-04T14:15:05;2.47;;;1.77;;
2934;SDS011;2462;51.456;7.248;2023-06-04T14:17:33;3.50;;;2.07;;
2934;SDS011;2462;51.456;7.248;2023-06-04T14:19:59;3.40;;;1.80;;
2934;SDS011;2462;51.456;7.248;2023-06-04T14:22:25;2.13;;;1.77;;
2934;SDS011;2462;51.456;7.248;2023-06-04T14:24:51;2.40;;;1.80;;
2934;SDS011;2462;51.456;7.248;2023-06-04T14:27:16;2.93;;;1.43;;
2934;SDS011;2462;51.456;7.248;2023-06-04T14:29:42;2.37;;;1.60;;
2934;SDS011;2462;51.456;7.248;2023-06-04T14:32:07;5.37;;;1.70;;
2934;SDS011;2462;51.456;7.248;2023-06-04T14:34:33;6.35;;;1.90;;
2934;SDS011;2462;51.456;7.248;2023-06-04T14:36:59;3.83;;;1.90;;
2934;SDS011;2462;51.456;7.248;2023-06-04T14:39:27;5.00;;;1.63;;
2934;SDS011;2462;51.456;7.248;2023-06-04T14:41:53;4.30;;;1.47;;
2934;SDS011;2462;51.456;7.248;2023-06-04T14:44:19;1.80;;;1.57;;
2934;SDS011;2462;51.456;7.248;2023-06-04T14:46:45;2.73;;;1.73;;
2934;SDS011;2462;51.456;7.248;2023-06-04T14:49:11;2.50;;;1.40;;
2934;SDS011;2462;51.456;7.248;2023-06-04T14:51:36;2.30;;;2.10;;
2934;SDS011;2462;51.456;7.248;2023-06-04T14:54:02;4.50;;;2.23;;
2934;SDS011;2462;51.456;7.248;2023-06-04T14:56:28;2.88;;;2.30;;
2934;SDS011;2462;51.456;7.248;2023-06-04T14:58:55;3.10;;;2.33;;
2934;SDS011;2462;51.456;7.248;2023-06-04T15:01:21;4.13;;;2.30;;
2934;SDS011;2462;51.456;7.248;2023-06-04T15:03:48;4.03;;;2.40;;
2934;SDS011;2462;51.456;7.248;2023-06-04T15:06:15;4.90;;;2.60;;
2934;SDS011;2462;51.456;7.248;2023-06-04T15:08:41;2.60;;;2.40;;
2934;SDS011;2462;51.456;7.248;2023-06-04T15:11:06;3.03;;;2.80;;
2934;SDS011;2462;51.456;7.248;2023-06-04T15:13:32;3.87;;;3.00;;
2934;SDS011;2462;51.456;7.248;2023-06-04T15:15:57;2.47;;;2.23;;
2934;SDS011;2462;51.456;7.248;2023-06-04T15:18:23;3.40;;;2.57;;
2934;SDS011;2462;51.456;7.248;2023-06-04T15:20:48;3.37;;;2.43;;